KLRJ/LRJ METAR and TAF weather

Enter ICAO airport designator
Station Type Date Time Source
KLRJ METAR 2024/02/26 17:15 UTC NOAA

KLRJ 261715Z AUTO 22010KT 10SM CLR 16/M01 A2943 RMK AO2


Station Type Date Time Source
KLRJ Decoded METAR 2024/02/26 17:15 UTC NOAA

Le Mars, Le Mars Municipal Airport, IA, United States (KLRJ) 42-46-41N 096-11-37W
Feb 26, 2024 - 12:15 PM EST / 2024.02.26 1715 UTC
Wind: from the SW (220 degrees) at 12 MPH (10 KT):0
Visibility: 10 mile(s):0
Sky conditions: clear
Temperature: 60 F (16 C)
Dew Point: 30 F (-1 C)
Relative Humidity: 31%
Pressure (altimeter): 29.43 in. Hg (996 hPa)
ob: KLRJ 261715Z AUTO 22010KT 10SM CLR 16/M01 A2943 RMK AO2
cycle: 17

Station Type Date Time Source
KLRJ TAF UTC NOAA

Error!

Example: see airport list